This is the latest recevied weather packets stored in our database for station/object K2RMB. If no packets are shown the sender has not sent any weather packets the latest 10 day(s).
| Time | Temp. | Humidity | Pressure | Rain* | Wind** | Luminosity | Snow |
|---|---|---|---|---|---|---|---|
| 1777062429 | 12.78° C | 26% | 1011.1 hPa | 0 mm | - | 452 W/m² | - |
| 1777062126 | 12.22° C | 26% | 1011.5 hPa | 0 mm | - | 473 W/m² | - |
| 1777061823 | 12.22° C | 27% | 1011.5 hPa | 0 mm | - | 483 W/m² | - |
| 1777061518 | 12.22° C | 26% | 1011.5 hPa | 0 mm | - | 501 W/m² | - |
| 1777061215 | 12.78° C | 26% | 1011.5 hPa | 0 mm | - | 517 W/m² | - |
| 1777060915 | 12.22° C | 25% | 1011.1 hPa | 0 mm | - | 532 W/m² | - |
| 1777060610 | 12.22° C | 27% | 1011.5 hPa | 0 mm | - | 547 W/m² | - |
| 1777060306 | 11.67° C | 24% | 1011.1 hPa | 0 mm | - | 560 W/m² | - |
| 1777060003 | 12.22° C | 27% | 1011.5 hPa | 0 mm | - | 570 W/m² | - |
| 1777059698 | 11.67° C | 24% | 1011.5 hPa | 0 mm | - | 588 W/m² | - |
| 1777059396 | 11.67° C | 26% | 1011.5 hPa | 0 mm | - | 601 W/m² | - |
| 1777059091 | 11.67° C | 26% | 1011.5 hPa | 0 mm | - | 617 W/m² | - |
| 1777058786 | 11.67° C | 25% | 1011.5 hPa | 0 mm | - | 631 W/m² | - |
| 1777058481 | 11.67° C | 25% | 1011.5 hPa | 0 mm | - | 644 W/m² | - |
| 1777058179 | 12.22° C | 24% | 1011.5 hPa | 0 mm | - | 656 W/m² | - |
| 1777057874 | 11.67° C | 25% | 1011.5 hPa | 0 mm | - | 667 W/m² | - |
| 1777057569 | 11.11° C | 25% | 1011.5 hPa | 0 mm | - | 678 W/m² | - |
| 1777057260 | 11.67° C | 31% | 1011.5 hPa | 0 mm | - | 684 W/m² | - |
| 1777056956 | 11.67° C | 29% | 1011.5 hPa | 0 mm | - | 702 W/m² | - |
| 1777056653 | 11.67° C | 29% | 1011.5 hPa | 0 mm | - | 716 W/m² | - |
| 1777056350 | 11.11° C | 32% | 1011.1 hPa | 0 mm | - | 724 W/m² | - |
| 1777056047 | 11.11° C | 32% | 1011.1 hPa | 0 mm | - | 734 W/m² | - |
| 1777055743 | 11.67° C | 31% | 1011.1 hPa | 0 mm | - | 741 W/m² | - |
| 1777055434 | 10.56° C | 32% | 1011.5 hPa | 0 mm | - | 745 W/m² | - |
| 1777055127 | 11.11° C | 33% | 1011.1 hPa | 0 mm | - | 756 W/m² | - |
* Rain latest hour (hover to see other rain measurements)
** Current wind speed in m/s (hover to see current wind gust speed)